createdAt,value
2018-10-05T00:01:19.210Z,4.50
2018-10-05T00:03:47.646Z,4.50
2018-10-05T00:06:16.094Z,4.40
2018-10-05T00:08:44.534Z,4.40
2018-10-05T00:11:12.947Z,4.40
2018-10-05T00:13:41.352Z,4.40
2018-10-05T00:16:09.840Z,4.40
2018-10-05T00:18:38.263Z,4.30
2018-10-05T00:21:06.713Z,4.30
2018-10-05T00:23:35.214Z,4.40
2018-10-05T00:26:03.811Z,4.50
2018-10-05T00:28:32.485Z,4.50
2018-10-05T00:31:00.982Z,4.40
2018-10-05T00:33:29.628Z,4.40
2018-10-05T00:35:58.066Z,4.30
2018-10-05T00:38:26.498Z,4.30
2018-10-05T00:41:00.508Z,4.60
2018-10-05T00:43:30.022Z,4.30
2018-10-05T00:45:58.480Z,4.20
2018-10-05T00:48:26.925Z,4.20
2018-10-05T00:50:55.337Z,4.20
2018-10-05T00:53:23.820Z,4.10
2018-10-05T00:55:52.247Z,4.00
2018-10-05T00:58:20.705Z,3.90
2018-10-05T01:00:49.132Z,3.80
2018-10-05T01:03:17.549Z,3.80
2018-10-05T01:05:46.034Z,3.90
2018-10-05T01:08:14.453Z,3.80
2018-10-05T01:10:42.878Z,3.80
2018-10-05T01:13:11.279Z,3.80
2018-10-05T01:15:39.993Z,3.80
2018-10-05T01:18:08.540Z,3.70
2018-10-05T01:20:37.243Z,3.80
2018-10-05T01:23:05.669Z,3.80
2018-10-05T01:25:34.107Z,3.70
2018-10-05T01:28:02.500Z,3.70
2018-10-05T01:30:30.954Z,3.70
2018-10-05T01:32:59.363Z,3.60
2018-10-05T01:35:27.778Z,3.70
2018-10-05T01:37:56.192Z,3.70
2018-10-05T01:40:24.824Z,3.60
2018-10-05T01:42:53.249Z,3.60
2018-10-05T01:45:21.666Z,3.50
2018-10-05T01:47:49.885Z,3.60
2018-10-05T01:50:18.170Z,3.60
2018-10-05T01:52:46.389Z,3.50
2018-10-05T01:55:14.596Z,3.40
2018-10-05T01:57:42.823Z,3.40
2018-10-05T02:00:11.310Z,3.40
2018-10-05T02:02:39.829Z,3.30
2018-10-05T02:05:08.505Z,3.20
2018-10-05T02:07:36.724Z,3.20
2018-10-05T02:10:04.976Z,3.10
2018-10-05T02:12:33.209Z,3.00
2018-10-05T02:15:01.417Z,3.00
2018-10-05T02:17:29.628Z,2.90
2018-10-05T02:19:57.902Z,2.90
2018-10-05T02:22:26.081Z,2.80
2018-10-05T02:24:54.337Z,2.90
2018-10-05T02:27:22.584Z,3.00
2018-10-05T02:29:50.785Z,3.00
2018-10-05T02:32:18.987Z,2.90
2018-10-05T02:34:47.212Z,2.90
2018-10-05T02:37:15.428Z,2.90
2018-10-05T02:39:43.641Z,2.80
2018-10-05T02:42:11.856Z,2.80
2018-10-05T02:44:40.074Z,2.80
2018-10-05T02:47:08.299Z,2.80
2018-10-05T02:49:36.566Z,2.90
2018-10-05T02:52:04.772Z,2.80
2018-10-05T02:54:32.997Z,2.80
2018-10-05T02:57:01.251Z,2.80
2018-10-05T02:59:29.477Z,2.80
2018-10-05T03:02:09.032Z,2.70
2018-10-05T03:04:37.257Z,2.70
2018-10-05T03:07:05.481Z,2.70
2018-10-05T03:09:33.736Z,2.70
2018-10-05T03:12:01.957Z,2.80
2018-10-05T03:14:30.169Z,2.70
2018-10-05T03:16:58.385Z,2.70
2018-10-05T03:19:26.609Z,2.60
2018-10-05T03:21:54.824Z,2.50
2018-10-05T03:24:23.057Z,2.50
2018-10-05T03:26:51.269Z,2.50
2018-10-05T03:29:19.481Z,2.50
2018-10-05T03:31:47.722Z,2.50
2018-10-05T03:34:15.943Z,2.50
2018-10-05T03:36:44.155Z,2.40
2018-10-05T03:39:12.373Z,2.40
2018-10-05T03:41:40.601Z,2.40
2018-10-05T03:44:08.894Z,2.30
2018-10-05T03:46:37.117Z,2.20
2018-10-05T03:49:05.669Z,2.30
2018-10-05T03:51:33.892Z,2.30
2018-10-05T03:54:02.123Z,2.20
2018-10-05T03:56:30.358Z,2.10
2018-10-05T03:58:58.590Z,2.20
2018-10-05T04:01:26.800Z,2.20
2018-10-05T04:03:55.021Z,2.10
2018-10-05T04:06:23.224Z,2.10
2018-10-05T04:08:51.441Z,2.20
2018-10-05T04:11:19.716Z,2.30
2018-10-05T04:13:48.042Z,2.30
2018-10-05T04:16:16.278Z,2.50
2018-10-05T04:18:44.496Z,2.60
2018-10-05T04:21:12.712Z,2.70
2018-10-05T04:23:40.944Z,2.50
2018-10-05T04:26:09.205Z,2.30
2018-10-05T04:28:37.445Z,2.20
2018-10-05T04:31:05.690Z,2.10
2018-10-05T04:33:33.989Z,2.20
2018-10-05T04:36:02.205Z,2.10
2018-10-05T04:38:30.420Z,2.10
2018-10-05T04:40:58.649Z,2.10
2018-10-05T04:43:26.849Z,2.00
2018-10-05T04:45:55.149Z,2.00
2018-10-05T04:48:23.365Z,1.90
2018-10-05T04:50:51.589Z,1.90
2018-10-05T04:53:19.824Z,1.80
2018-10-05T04:55:48.050Z,1.80
2018-10-05T04:58:16.266Z,1.70
2018-10-05T05:00:44.485Z,1.70
2018-10-05T05:03:13.519Z,1.70
2018-10-05T05:05:44.804Z,1.70
2018-10-05T05:08:13.034Z,1.70
2018-10-05T05:10:41.256Z,1.70
2018-10-05T05:13:09.504Z,1.80
2018-10-05T05:15:37.738Z,1.80
2018-10-05T05:18:06.248Z,1.80
2018-10-05T05:20:34.477Z,1.80
2018-10-05T05:23:03.346Z,1.90
2018-10-05T05:25:31.564Z,1.90
2018-10-05T05:27:59.797Z,1.90
2018-10-05T05:30:28.018Z,1.80
2018-10-05T05:32:56.286Z,1.70
2018-10-05T05:35:24.512Z,1.70
2018-10-05T05:37:52.838Z,1.70
2018-10-05T05:40:21.093Z,1.80
2018-10-05T05:42:49.289Z,1.80
2018-10-05T05:45:17.624Z,1.90
2018-10-05T05:47:45.858Z,1.90
2018-10-05T05:50:14.077Z,1.80
2018-10-05T05:52:42.306Z,2.00
2018-10-05T05:55:10.526Z,2.20
2018-10-05T05:57:38.756Z,2.20
2018-10-05T06:00:06.993Z,2.30
2018-10-05T06:02:35.208Z,2.50
2018-10-05T06:05:03.437Z,2.70
2018-10-05T06:07:31.661Z,2.80
2018-10-05T06:09:59.888Z,2.90
2018-10-05T06:12:28.110Z,3.10
2018-10-05T06:14:56.328Z,3.30
2018-10-05T06:17:24.544Z,3.50
2018-10-05T06:19:52.778Z,3.60
2018-10-05T06:22:21.107Z,3.90
2018-10-05T06:24:49.225Z,4.00
2018-10-05T06:27:17.496Z,4.00
2018-10-05T06:29:45.686Z,4.20
2018-10-05T06:32:13.901Z,4.40
2018-10-05T06:34:42.110Z,4.50
2018-10-05T06:37:10.325Z,4.70
2018-10-05T06:39:38.586Z,4.90
2018-10-05T06:42:06.917Z,5.00
2018-10-05T06:44:35.046Z,5.20
2018-10-05T06:47:03.265Z,5.30
2018-10-05T06:49:31.481Z,5.30
2018-10-05T06:51:59.713Z,5.40
2018-10-05T06:54:27.934Z,5.50
2018-10-05T06:56:56.157Z,5.50
2018-10-05T06:59:24.381Z,5.70
2018-10-05T07:01:52.647Z,5.90
2018-10-05T07:04:20.837Z,6.00
2018-10-05T07:06:49.054Z,6.20
2018-10-05T07:09:17.277Z,6.30
2018-10-05T07:11:45.507Z,6.40
2018-10-05T07:14:13.712Z,6.30
2018-10-05T07:16:41.933Z,6.60
2018-10-05T07:19:10.153Z,6.70
2018-10-05T07:21:38.384Z,7.10
2018-10-05T07:24:06.594Z,7.70
2018-10-05T07:26:34.805Z,8.90
2018-10-05T07:29:03.016Z,11.10
2018-10-05T07:31:31.247Z,12.50
2018-10-05T07:33:59.478Z,13.60
2018-10-05T07:36:27.708Z,14.40
2018-10-05T07:38:55.945Z,16.60
2018-10-05T07:41:24.161Z,17.90
2018-10-05T07:43:52.413Z,19.40
2018-10-05T07:46:20.665Z,19.80
2018-10-05T07:48:48.935Z,19.30
2018-10-05T07:51:17.165Z,20.30
2018-10-05T07:53:45.393Z,20.80
2018-10-05T07:56:13.611Z,22.30
2018-10-05T07:58:41.836Z,23.30
2018-10-05T08:01:10.152Z,22.70
2018-10-05T08:03:38.398Z,24.30
2018-10-05T08:06:06.701Z,24.20
2018-10-05T08:08:34.958Z,25.00
2018-10-05T08:11:03.168Z,24.70
2018-10-05T08:13:31.425Z,25.20
2018-10-05T08:15:59.640Z,26.20
2018-10-05T08:18:27.866Z,27.60
2018-10-05T08:20:56.162Z,27.60
2018-10-05T08:23:24.337Z,27.70
2018-10-05T08:25:52.560Z,27.90
2018-10-05T08:28:20.776Z,29.40
2018-10-05T08:30:49.000Z,31.10
2018-10-05T08:33:17.216Z,30.20
2018-10-05T08:35:45.504Z,30.10
2018-10-05T08:38:13.734Z,29.90
2018-10-05T08:40:41.960Z,30.50
2018-10-05T08:43:10.176Z,31.60
2018-10-05T08:45:38.431Z,32.00
2018-10-05T08:48:06.738Z,30.60
2018-10-05T08:50:34.957Z,31.20
2018-10-05T08:53:03.193Z,30.00
2018-10-05T08:55:31.441Z,31.70
2018-10-05T08:57:59.670Z,32.20
2018-10-05T09:00:27.983Z,31.20
2018-10-05T09:02:56.140Z,31.00
2018-10-05T09:05:24.425Z,32.10
2018-10-05T09:07:52.655Z,33.10
2018-10-05T09:10:20.905Z,33.40
2018-10-05T09:12:49.128Z,32.80
2018-10-05T09:15:17.375Z,33.70
2018-10-05T09:17:45.622Z,31.80
2018-10-05T09:20:13.849Z,32.80
2018-10-05T09:22:42.073Z,34.10
2018-10-05T09:25:10.304Z,34.50
2018-10-05T09:27:38.537Z,33.80
2018-10-05T09:30:06.760Z,33.40
2018-10-05T09:32:34.985Z,33.30
2018-10-05T09:35:03.221Z,33.90
2018-10-05T09:37:31.493Z,35.30
2018-10-05T09:39:59.718Z,36.00
2018-10-05T09:42:27.938Z,36.30
2018-10-05T09:44:56.210Z,34.90
2018-10-05T09:47:24.432Z,35.10
2018-10-05T09:49:52.666Z,33.70
2018-10-05T09:52:20.982Z,33.10
2018-10-05T09:54:49.142Z,34.40
2018-10-05T09:57:17.372Z,33.90
2018-10-05T09:59:45.624Z,33.40
2018-10-05T10:02:14.515Z,32.50
2018-10-05T10:04:42.760Z,31.60
2018-10-05T10:07:11.039Z,31.70
2018-10-05T10:09:39.305Z,32.20
2018-10-05T10:12:07.532Z,32.30
2018-10-05T10:14:35.765Z,33.30
2018-10-05T10:17:03.981Z,32.10
2018-10-05T10:19:32.212Z,31.60
2018-10-05T10:22:00.453Z,32.30
2018-10-05T10:24:28.678Z,32.10
2018-10-05T10:26:56.903Z,32.70
2018-10-05T10:29:25.192Z,33.10
2018-10-05T10:31:53.415Z,32.10
2018-10-05T10:34:21.689Z,33.10
2018-10-05T10:36:49.963Z,32.90
2018-10-05T10:39:18.112Z,33.80
2018-10-05T10:41:46.361Z,33.40
2018-10-05T10:44:14.586Z,34.60
2018-10-05T10:46:42.793Z,33.60
2018-10-05T10:49:11.021Z,33.90
2018-10-05T10:51:39.380Z,33.00
2018-10-05T10:54:07.707Z,33.20
2018-10-05T10:56:35.884Z,31.00
2018-10-05T10:59:04.107Z,29.90
2018-10-05T11:01:32.337Z,29.20
2018-10-05T11:04:00.635Z,29.80
2018-10-05T11:06:28.812Z,28.90
2018-10-05T11:08:57.032Z,27.90
2018-10-05T11:11:25.264Z,28.40
2018-10-05T11:13:53.567Z,27.90
2018-10-05T11:16:21.813Z,28.40
2018-10-05T11:18:50.017Z,27.90
2018-10-05T11:21:18.267Z,28.00
2018-10-05T11:23:46.505Z,27.50
2018-10-05T11:26:14.734Z,26.80
2018-10-05T11:28:42.960Z,26.20
2018-10-05T11:31:11.237Z,26.30
2018-10-05T11:33:39.545Z,25.60
2018-10-05T11:36:07.772Z,26.10
2018-10-05T11:38:36.005Z,26.40
2018-10-05T11:41:04.480Z,25.90
2018-10-05T11:43:32.697Z,26.50
2018-10-05T11:46:00.937Z,27.10
2018-10-05T11:48:29.161Z,26.80
2018-10-05T11:50:57.394Z,26.20
2018-10-05T11:53:25.614Z,25.80
2018-10-05T11:55:53.870Z,25.80
2018-10-05T11:58:22.101Z,25.40
2018-10-05T12:00:50.340Z,25.40
2018-10-05T12:03:18.557Z,25.60
2018-10-05T12:05:46.785Z,25.70
2018-10-05T12:08:15.014Z,25.70
2018-10-05T12:10:43.240Z,25.70
2018-10-05T12:13:11.460Z,26.40
2018-10-05T12:15:39.676Z,26.40
2018-10-05T12:18:08.218Z,26.60
2018-10-05T12:20:36.442Z,26.70
2018-10-05T12:23:04.703Z,26.10
2018-10-05T12:25:32.937Z,26.40
2018-10-05T12:28:01.181Z,26.30
2018-10-05T12:30:29.408Z,26.50
2018-10-05T12:32:57.641Z,26.70
2018-10-05T12:35:25.857Z,27.10
2018-10-05T12:37:54.076Z,27.70
2018-10-05T12:40:22.288Z,27.90
2018-10-05T12:42:50.501Z,27.20
2018-10-05T12:45:18.753Z,26.90
2018-10-05T12:47:46.974Z,27.10
2018-10-05T12:50:15.377Z,26.80
2018-10-05T12:52:43.505Z,27.10
2018-10-05T12:55:11.727Z,27.50
2018-10-05T12:57:39.955Z,27.60
2018-10-05T13:00:08.206Z,27.90
2018-10-05T13:02:36.529Z,27.90
2018-10-05T13:05:05.137Z,28.00
2018-10-05T13:07:33.192Z,28.10
2018-10-05T13:10:01.422Z,28.10
2018-10-05T13:12:29.687Z,27.50
2018-10-05T13:14:57.909Z,27.00
2018-10-05T13:17:26.184Z,26.80
2018-10-05T13:19:54.401Z,27.10
2018-10-05T13:22:22.616Z,27.40
2018-10-05T13:24:50.914Z,27.30
2018-10-05T13:27:19.068Z,27.20
2018-10-05T13:29:47.313Z,27.20
2018-10-05T13:32:15.532Z,27.70
2018-10-05T13:34:43.760Z,26.90
2018-10-05T13:37:12.000Z,27.30
2018-10-05T13:39:40.237Z,27.60
2018-10-05T13:42:08.544Z,27.40
2018-10-05T13:44:36.724Z,27.80
2018-10-05T13:47:05.048Z,28.00
2018-10-05T13:49:33.306Z,27.70
2018-10-05T13:52:01.541Z,27.70
2018-10-05T13:54:29.762Z,27.80
2018-10-05T13:56:57.990Z,27.90
2018-10-05T13:59:26.217Z,27.70
2018-10-05T14:01:54.434Z,27.20
2018-10-05T14:04:22.702Z,26.70
2018-10-05T14:06:50.952Z,26.10
2018-10-05T14:09:19.165Z,25.70
2018-10-05T14:11:47.396Z,25.50
2018-10-05T14:14:15.623Z,25.10
2018-10-05T14:16:44.024Z,24.60
2018-10-05T14:19:12.292Z,24.40
2018-10-05T14:21:40.563Z,24.10
2018-10-05T14:24:09.729Z,23.90
2018-10-05T14:26:38.054Z,23.70
2018-10-05T14:29:06.576Z,23.40
2018-10-05T14:31:34.816Z,23.40
2018-10-05T14:34:03.245Z,23.50
2018-10-05T14:36:31.669Z,23.60
2018-10-05T14:38:59.977Z,23.60
2018-10-05T14:41:28.348Z,23.60
2018-10-05T14:43:56.585Z,23.50
2018-10-05T14:46:25.385Z,23.20
2018-10-05T14:48:53.628Z,22.90
2018-10-05T14:51:21.917Z,22.80
2018-10-05T14:53:50.194Z,22.70
2018-10-05T14:56:18.876Z,22.60
2018-10-05T14:58:47.094Z,22.50
2018-10-05T15:01:15.379Z,22.30
2018-10-05T15:03:43.710Z,22.30
2018-10-05T15:06:12.113Z,22.20
2018-10-05T15:08:40.341Z,22.00
2018-10-05T15:11:08.634Z,22.00
2018-10-05T15:13:37.991Z,21.90
2018-10-05T15:16:06.237Z,21.80
2018-10-05T15:18:34.583Z,21.80
2018-10-05T15:21:02.817Z,21.70
2018-10-05T15:23:31.042Z,21.60
2018-10-05T15:25:59.561Z,21.60
2018-10-05T15:28:27.816Z,21.50
2018-10-05T15:30:56.033Z,21.40
2018-10-05T15:33:34.739Z,21.30
2018-10-05T15:36:20.394Z,21.20
2018-10-05T15:38:59.822Z,21.10
2018-10-05T15:41:28.979Z,21.10
2018-10-05T15:43:57.439Z,21.00
2018-10-05T15:46:51.594Z,20.90
2018-10-05T15:49:20.100Z,20.90
2018-10-05T15:51:48.745Z,20.90
2018-10-05T15:54:16.984Z,20.90
2018-10-05T15:56:45.228Z,20.80
2018-10-05T15:59:13.719Z,20.70
2018-10-05T16:01:41.944Z,20.60
2018-10-05T16:04:10.210Z,20.40
2018-10-05T16:06:38.577Z,20.30
2018-10-05T16:09:07.533Z,20.20
2018-10-05T16:11:36.021Z,20.00
2018-10-05T16:14:04.516Z,19.90
2018-10-05T16:16:32.845Z,19.70
2018-10-05T16:19:01.561Z,19.60
2018-10-05T16:21:29.998Z,19.40
2018-10-05T16:23:58.633Z,19.20
2018-10-05T16:26:27.758Z,19.00
2018-10-05T16:28:56.136Z,18.80
2018-10-05T16:31:24.433Z,18.70
2018-10-05T16:33:52.714Z,18.40
2018-10-05T16:36:20.959Z,18.10
2018-10-05T16:38:49.202Z,17.90
2018-10-05T16:41:17.609Z,17.60
2018-10-05T16:43:45.938Z,17.30
2018-10-05T16:46:14.102Z,17.00
2018-10-05T16:48:42.396Z,16.80
2018-10-05T16:51:10.881Z,16.60
2018-10-05T16:53:39.155Z,16.40
2018-10-05T16:56:08.026Z,16.20
2018-10-05T16:58:36.351Z,16.00
2018-10-05T17:01:04.668Z,15.80
2018-10-05T17:03:33.441Z,15.60
2018-10-05T17:06:02.406Z,15.30
2018-10-05T17:08:32.595Z,15.10
2018-10-05T17:11:00.937Z,15.00
2018-10-05T17:13:29.824Z,14.80
2018-10-05T17:15:58.097Z,14.40
2018-10-05T17:18:26.916Z,14.40
2018-10-05T17:20:55.190Z,14.30
2018-10-05T17:23:23.432Z,14.10
2018-10-05T17:25:51.725Z,14.00
2018-10-05T17:28:19.981Z,13.90
2018-10-05T17:30:48.391Z,13.70
2018-10-05T17:33:16.686Z,13.60
2018-10-05T17:35:45.026Z,13.40
2018-10-05T17:38:13.261Z,13.40
2018-10-05T17:40:41.504Z,13.20
2018-10-05T17:43:09.731Z,13.10
2018-10-05T17:45:37.972Z,13.00
2018-10-05T17:48:06.654Z,12.90
2018-10-05T17:50:34.900Z,12.70
2018-10-05T17:53:03.153Z,12.60
2018-10-05T17:55:31.505Z,12.60
2018-10-05T17:57:59.804Z,12.50
2018-10-05T18:00:28.090Z,12.40
2018-10-05T18:02:56.342Z,12.30
2018-10-05T18:05:25.246Z,12.20
2018-10-05T18:07:53.533Z,12.10
2018-10-05T18:10:21.827Z,11.90
2018-10-05T18:12:50.081Z,11.70
2018-10-05T18:15:18.314Z,11.70
2018-10-05T18:17:46.781Z,11.50
2018-10-05T18:20:15.138Z,11.40
2018-10-05T18:22:43.502Z,11.30
2018-10-05T18:25:11.752Z,11.20
2018-10-05T18:27:40.011Z,11.10
2018-10-05T18:30:08.239Z,11.00
2018-10-05T18:32:36.490Z,10.90
2018-10-05T18:37:33.377Z,10.90
2018-10-05T18:40:01.662Z,10.80
2018-10-05T18:42:29.897Z,10.70
2018-10-05T18:44:58.155Z,10.70
2018-10-05T18:47:26.629Z,10.50
2018-10-05T18:49:55.283Z,10.40
2018-10-05T18:52:23.908Z,10.30
2018-10-05T18:54:53.515Z,10.20
2018-10-05T18:57:23.982Z,10.20
2018-10-05T18:59:52.497Z,10.10
2018-10-05T19:02:21.425Z,10.00
2018-10-05T19:04:49.841Z,10.00
2018-10-05T19:07:18.286Z,9.90
2018-10-05T19:09:46.776Z,9.90
2018-10-05T19:12:15.438Z,9.90
2018-10-05T19:14:43.965Z,9.90
2018-10-05T19:17:13.831Z,9.80
2018-10-05T19:19:42.518Z,9.90
2018-10-05T19:22:10.798Z,10.00
2018-10-05T19:24:39.309Z,9.80
2018-10-05T19:27:07.561Z,9.60
2018-10-05T19:29:35.809Z,9.60
2018-10-05T19:32:04.053Z,9.50
2018-10-05T19:34:32.296Z,9.40
2018-10-05T19:37:00.533Z,9.30
2018-10-05T19:39:29.357Z,9.20
2018-10-05T19:41:57.733Z,9.10
2018-10-05T19:44:26.063Z,9.10
2018-10-05T19:46:54.434Z,9.20
2018-10-05T19:49:22.714Z,9.10
2018-10-05T19:51:50.953Z,9.20
2018-10-05T19:54:20.177Z,9.20
2018-10-05T19:56:48.425Z,9.30
2018-10-05T19:59:16.693Z,9.10
2018-10-05T20:01:44.932Z,9.00
2018-10-05T20:04:13.208Z,8.90
2018-10-05T20:06:41.449Z,8.70
2018-10-05T20:09:09.767Z,8.60
2018-10-05T20:11:38.000Z,8.70
2018-10-05T20:14:06.252Z,8.70
2018-10-05T20:16:34.525Z,8.60
2018-10-05T20:19:02.792Z,8.60
2018-10-05T20:21:31.131Z,8.70
2018-10-05T20:23:59.363Z,8.80
2018-10-05T20:26:27.620Z,8.80
2018-10-05T20:28:55.880Z,8.70
2018-10-05T20:31:24.156Z,8.70
2018-10-05T20:33:52.388Z,8.60
2018-10-05T20:36:23.131Z,8.60
2018-10-05T20:38:51.337Z,8.50
2018-10-05T20:41:19.705Z,8.40
2018-10-05T20:43:48.011Z,8.30
2018-10-05T20:46:16.281Z,8.30
2018-10-05T20:48:44.509Z,8.20
2018-10-05T20:51:12.730Z,8.20
2018-10-05T20:53:41.068Z,8.20
2018-10-05T20:56:09.313Z,8.20
2018-10-05T20:58:37.539Z,8.20
2018-10-05T21:01:05.800Z,8.10
2018-10-05T21:03:34.017Z,8.10
2018-10-05T21:06:02.226Z,8.10
2018-10-05T21:08:30.443Z,8.10
2018-10-05T21:10:58.657Z,8.10
2018-10-05T21:13:26.868Z,8.10
2018-10-05T21:15:55.086Z,8.00
2018-10-05T21:18:23.305Z,8.00
2018-10-05T21:20:51.575Z,7.80
2018-10-05T21:23:19.790Z,7.70
2018-10-05T21:25:48.012Z,7.70
2018-10-05T21:28:16.228Z,7.60
2018-10-05T21:30:44.432Z,7.70
2018-10-05T21:33:12.729Z,7.60
2018-10-05T21:35:40.888Z,7.60
2018-10-05T21:38:09.105Z,7.50
2018-10-05T21:40:37.322Z,7.40
2018-10-05T21:43:05.531Z,7.40
2018-10-05T21:45:33.749Z,7.40
2018-10-05T21:48:01.961Z,7.40
2018-10-05T21:50:30.184Z,7.40
2018-10-05T21:52:58.397Z,7.30
2018-10-05T21:55:26.612Z,7.10
2018-10-05T21:57:54.867Z,7.10
2018-10-05T22:00:23.081Z,7.10
2018-10-05T22:02:51.305Z,7.10
2018-10-05T22:05:19.524Z,7.10
2018-10-05T22:07:47.756Z,7.00
2018-10-05T22:10:15.973Z,6.90
2018-10-05T22:12:44.194Z,7.10
2018-10-05T22:15:12.400Z,7.10
2018-10-05T22:17:40.619Z,7.00
2018-10-05T22:20:08.825Z,6.90
2018-10-05T22:22:37.033Z,6.80
2018-10-05T22:25:05.249Z,6.80
2018-10-05T22:27:33.457Z,6.80
2018-10-05T22:30:01.674Z,6.80
2018-10-05T22:32:29.910Z,6.90
2018-10-05T22:34:58.126Z,7.10
2018-10-05T22:37:26.341Z,7.10
2018-10-05T22:39:54.556Z,6.90
2018-10-05T22:42:22.769Z,6.80
2018-10-05T22:44:51.007Z,6.90
2018-10-05T22:47:19.233Z,6.80
2018-10-05T22:49:47.460Z,6.80
2018-10-05T22:52:15.684Z,6.80
2018-10-05T22:54:43.911Z,6.70
2018-10-05T22:57:12.140Z,6.80
2018-10-05T22:59:40.361Z,6.70
2018-10-05T23:02:08.575Z,6.60
2018-10-05T23:04:36.796Z,6.60
2018-10-05T23:07:05.039Z,6.70
2018-10-05T23:09:33.325Z,6.80
2018-10-05T23:12:01.507Z,6.70
2018-10-05T23:14:29.733Z,6.60
2018-10-05T23:16:57.948Z,6.60
2018-10-05T23:19:26.164Z,6.50
2018-10-05T23:21:54.381Z,6.50
2018-10-05T23:24:22.600Z,6.50
2018-10-05T23:26:50.829Z,6.50
2018-10-05T23:29:19.097Z,6.40
2018-10-05T23:31:47.314Z,6.30
2018-10-05T23:34:15.520Z,6.30
2018-10-05T23:36:43.749Z,6.30
2018-10-05T23:39:12.225Z,6.30
2018-10-05T23:41:40.438Z,6.30
2018-10-05T23:44:08.992Z,6.60
2018-10-05T23:46:37.201Z,6.80
2018-10-05T23:49:05.449Z,6.70
2018-10-05T23:51:33.648Z,6.60
2018-10-05T23:54:01.856Z,6.60
2018-10-05T23:56:30.072Z,6.50
2018-10-05T23:58:58.282Z,6.50
